createdAt,value
2023-02-04T00:00:01.138Z,96154.00
2023-02-04T00:02:27.903Z,96152.59
2023-02-04T00:04:54.684Z,96137.22
2023-02-04T00:07:21.459Z,96139.81
2023-02-04T00:09:49.986Z,96155.00
2023-02-04T00:12:17.021Z,96141.88
2023-02-04T00:14:44.456Z,96139.34
2023-02-04T00:17:13.115Z,96141.97
2023-02-04T00:19:40.563Z,96139.66
2023-02-04T00:22:08.051Z,96136.69
2023-02-04T00:24:38.515Z,96115.53
2023-02-04T00:27:06.440Z,96131.28
2023-02-04T00:29:33.125Z,96145.47
2023-02-04T00:32:00.235Z,96141.13
2023-02-04T00:34:27.016Z,96139.22
2023-02-04T00:36:53.688Z,96151.31
2023-02-04T00:39:20.462Z,96139.69
2023-02-04T00:41:47.136Z,96133.59
2023-02-04T00:44:16.895Z,96141.75
2023-02-04T00:46:43.624Z,96150.66
2023-02-04T00:49:11.247Z,96146.91
2023-02-04T00:51:39.732Z,96151.84
2023-02-04T00:54:07.344Z,96164.06
2023-02-04T00:56:34.547Z,96179.00
2023-02-04T00:59:01.404Z,96179.56
2023-02-04T01:01:28.186Z,96168.94
2023-02-04T01:03:55.134Z,96157.25
2023-02-04T01:06:21.881Z,96156.44
2023-02-04T01:08:48.665Z,96160.31
2023-02-04T01:11:15.425Z,96173.88
2023-02-04T01:13:42.330Z,96168.81
2023-02-04T01:16:09.323Z,96169.38
2023-02-04T01:18:36.179Z,96177.75
2023-02-04T01:21:02.929Z,96189.00
2023-02-04T01:23:29.609Z,96175.50
2023-02-04T01:25:57.187Z,96164.97
2023-02-04T01:28:23.896Z,96173.19
2023-02-04T01:34:57.161Z,96167.94
2023-02-04T01:37:23.936Z,96173.28
2023-02-04T01:39:50.567Z,96185.50
2023-02-04T01:42:17.285Z,96191.91
2023-02-04T01:44:44.107Z,96196.13
2023-02-04T01:47:10.832Z,96190.53
2023-02-04T01:49:37.703Z,96184.44
2023-02-04T01:52:04.839Z,96181.81
2023-02-04T01:54:32.346Z,96197.03
2023-02-04T01:56:59.252Z,96199.31
2023-02-04T01:59:27.061Z,96203.50
2023-02-04T02:01:54.419Z,96208.41
2023-02-04T02:04:33.612Z,96203.50
2023-02-04T02:07:03.865Z,96204.59
2023-02-04T02:09:32.563Z,96196.69
2023-02-04T02:12:01.617Z,96204.59
2023-02-04T02:14:28.478Z,96204.44
2023-02-04T02:16:55.157Z,96203.63
2023-02-04T02:19:28.911Z,96201.00
2023-02-04T02:22:03.624Z,96199.31
2023-02-04T02:24:31.652Z,96200.03
2023-02-04T02:27:01.176Z,96199.69
2023-02-04T02:29:28.343Z,96197.19
2023-02-04T02:32:00.391Z,96201.75
2023-02-04T02:34:28.898Z,96201.59
2023-02-04T02:36:55.985Z,96187.75
2023-02-04T02:39:22.973Z,96194.56
2023-02-04T02:41:49.713Z,96205.19
2023-02-04T02:44:18.090Z,96197.44
2023-02-04T02:46:45.293Z,96204.25
2023-02-04T02:49:18.138Z,96199.69
2023-02-04T02:51:45.920Z,96201.03
2023-02-04T02:54:32.017Z,96195.31
2023-02-04T02:56:59.432Z,96198.91
2023-02-04T02:59:27.790Z,96198.63
2023-02-04T03:01:59.500Z,96197.09
2023-02-04T03:04:28.751Z,96195.44
2023-02-04T03:06:56.248Z,96198.91
2023-02-04T03:09:25.920Z,96198.75
2023-02-04T03:11:52.906Z,96197.00
2023-02-04T03:14:20.152Z,96202.47
2023-02-04T03:16:48.240Z,96207.75
2023-02-04T03:19:15.213Z,96198.06
2023-02-04T03:21:42.513Z,96197.00
2023-02-04T03:24:09.724Z,96205.78
2023-02-04T03:26:36.624Z,96198.50
2023-02-04T03:29:06.130Z,96200.56
2023-02-04T03:31:32.919Z,96205.13
2023-02-04T03:33:59.622Z,96201.78
2023-02-04T03:36:26.273Z,96206.06
2023-02-04T03:38:54.298Z,96204.97
2023-02-04T03:41:21.860Z,96197.47
2023-02-04T03:43:48.496Z,96195.66
2023-02-04T03:46:15.230Z,96202.72
2023-02-04T03:48:41.854Z,96190.03
2023-02-04T03:51:08.545Z,96203.03
2023-02-04T03:53:35.179Z,96208.94
2023-02-04T03:56:01.790Z,96212.34
2023-02-04T03:58:28.472Z,96208.50
2023-02-04T04:00:55.095Z,96197.56
2023-02-04T04:03:21.744Z,96199.72
2023-02-04T04:05:48.574Z,96195.19
2023-02-04T04:08:15.222Z,96198.63
2023-02-04T04:10:42.076Z,96201.13
2023-02-04T04:13:08.780Z,96197.56
2023-02-04T04:15:35.414Z,96194.91
2023-02-04T04:18:02.900Z,96201.41
2023-02-04T04:20:29.709Z,96202.25
2023-02-04T04:22:56.573Z,96211.25
2023-02-04T04:25:23.247Z,96215.53
2023-02-04T04:27:49.900Z,96213.63
2023-02-04T04:30:16.945Z,96224.03
2023-02-04T04:32:43.554Z,96246.44
2023-02-04T04:35:10.193Z,96233.88
2023-02-04T04:37:36.807Z,96233.63
2023-02-04T04:40:03.808Z,96231.81
2023-02-04T04:42:30.430Z,96241.78
2023-02-04T04:44:57.200Z,96243.34
2023-02-04T04:47:23.824Z,96241.31
2023-02-04T04:49:50.502Z,96244.09
2023-02-04T04:52:17.107Z,96246.03
2023-02-04T04:54:43.738Z,96253.06
2023-02-04T04:57:10.427Z,96262.56
2023-02-04T04:59:37.070Z,96271.88
2023-02-04T05:02:03.756Z,96263.72
2023-02-04T05:04:30.456Z,96259.06
2023-02-04T05:06:57.173Z,96268.53
2023-02-04T05:09:23.891Z,96275.00
2023-02-04T05:11:50.651Z,96290.06
2023-02-04T05:14:17.324Z,96295.72
2023-02-04T05:16:44.036Z,96306.59
2023-02-04T05:19:10.805Z,96303.63
2023-02-04T05:21:37.492Z,96307.69
2023-02-04T05:24:06.501Z,96326.47
2023-02-04T05:26:33.550Z,96314.50
2023-02-04T05:29:00.645Z,96319.03
2023-02-04T05:31:27.690Z,96318.56
2023-02-04T05:33:54.702Z,96331.00
2023-02-04T05:36:21.754Z,96342.50
2023-02-04T05:38:48.376Z,96339.84
2023-02-04T05:41:15.069Z,96332.94
2023-02-04T05:43:41.818Z,96337.00
2023-02-04T05:46:08.615Z,96338.22
2023-02-04T05:48:35.373Z,96340.13
2023-02-04T05:51:02.040Z,96339.41
2023-02-04T05:53:28.699Z,96358.31
2023-02-04T05:55:55.350Z,96350.78
2023-02-04T05:58:22.065Z,96335.22
2023-02-04T06:00:48.757Z,96343.38
2023-02-04T06:03:15.621Z,96321.94
2023-02-04T06:05:44.345Z,96342.50
2023-02-04T06:08:11.214Z,96345.84
2023-02-04T06:10:37.882Z,96332.94
2023-02-04T06:13:04.602Z,96344.41
2023-02-04T06:15:31.236Z,96344.53
2023-02-04T06:17:58.656Z,96354.00
2023-02-04T06:20:25.330Z,96369.78
2023-02-04T06:22:52.052Z,96368.84
2023-02-04T06:25:19.294Z,96379.59
2023-02-04T06:27:46.066Z,96391.09
2023-02-04T06:30:13.630Z,96384.00
2023-02-04T06:32:40.285Z,96396.09
2023-02-04T06:35:07.583Z,96403.75
2023-02-04T06:37:34.461Z,96395.28
2023-02-04T06:40:01.234Z,96395.84
2023-02-04T06:42:27.884Z,96424.78
2023-02-04T06:44:54.586Z,96427.66
2023-02-04T06:49:57.191Z,96437.25
2023-02-04T06:52:23.831Z,96445.47
2023-02-04T06:54:50.582Z,96464.25
2023-02-04T06:57:17.286Z,96467.59
2023-02-04T06:59:44.044Z,96480.16
2023-02-04T07:02:12.445Z,96490.09
2023-02-04T07:04:39.257Z,96504.53
2023-02-04T07:07:05.982Z,96521.53
2023-02-04T07:09:32.764Z,96520.16
2023-02-04T07:11:59.401Z,96550.09
2023-02-04T07:14:26.001Z,96563.75
2023-02-04T07:16:52.633Z,96576.41
2023-02-04T07:19:21.135Z,96569.13
2023-02-04T07:21:48.142Z,96605.78
2023-02-04T07:24:14.793Z,96611.50
2023-02-04T07:26:41.575Z,96606.25
2023-02-04T07:29:12.227Z,96604.84
2023-02-04T07:31:41.699Z,96621.97
2023-02-04T07:34:08.471Z,96622.25
2023-02-04T07:36:35.177Z,96627.38
2023-02-04T07:40:49.071Z,96637.28
2023-02-04T07:43:15.886Z,96641.56
2023-02-04T07:45:42.520Z,96651.56
2023-02-04T07:48:10.787Z,96654.31
2023-02-04T07:50:37.642Z,96648.72
2023-02-04T07:53:04.422Z,96654.69
2023-02-04T07:55:31.185Z,96652.31
2023-02-04T07:57:58.036Z,96641.41
2023-02-04T08:00:24.734Z,96637.81
2023-02-04T08:02:51.814Z,96633.91
2023-02-04T08:05:18.627Z,96633.19
2023-02-04T08:07:45.582Z,96666.78
2023-02-04T08:10:12.584Z,96664.22
2023-02-04T08:12:39.487Z,96673.13
2023-02-04T08:15:09.608Z,96691.09
2023-02-04T08:20:11.552Z,96700.50
2023-02-04T08:22:38.236Z,96723.22
2023-02-04T08:25:08.424Z,96748.66
2023-02-04T08:27:35.100Z,96719.16
2023-02-04T08:32:00.864Z,96748.22
2023-02-04T08:34:27.589Z,96756.22
2023-02-04T08:36:54.220Z,96763.88
2023-02-04T08:39:20.909Z,96771.22
2023-02-04T08:41:49.258Z,96781.41
2023-02-04T08:44:16.013Z,96781.53
2023-02-04T08:46:42.793Z,96781.19
2023-02-04T08:49:09.530Z,96781.44
2023-02-04T08:51:36.190Z,96787.09
2023-02-04T08:54:02.845Z,96803.59
2023-02-04T08:56:29.586Z,96798.31
2023-02-04T08:58:56.486Z,96791.28
2023-02-04T09:01:23.228Z,96792.72
2023-02-04T09:03:49.959Z,96798.50
2023-02-04T09:06:16.638Z,96798.13
2023-02-04T09:08:43.331Z,96804.47
2023-02-04T09:11:12.383Z,96803.03
2023-02-04T09:13:39.597Z,96820.66
2023-02-04T09:16:06.604Z,96798.84
2023-02-04T09:18:33.521Z,96809.25
2023-02-04T09:21:00.368Z,96806.88
2023-02-04T09:23:27.155Z,96816.38
2023-02-04T09:25:53.881Z,96792.91
2023-02-04T09:28:20.680Z,96802.50
2023-02-04T09:33:25.413Z,96807.59
2023-02-04T09:35:52.178Z,96805.56
2023-02-04T09:38:18.840Z,96807.09
2023-02-04T09:40:50.669Z,96807.44
2023-02-04T09:45:57.355Z,96820.03
2023-02-04T09:48:24.976Z,96827.63
2023-02-04T09:50:53.082Z,96838.19
2023-02-04T09:53:23.354Z,96836.72
2023-02-04T09:55:51.843Z,96834.22
2023-02-04T09:58:20.995Z,96833.34
2023-02-04T10:00:56.852Z,96848.22
2023-02-04T10:03:23.636Z,96833.97
2023-02-04T10:05:51.728Z,96847.50
2023-02-04T10:08:21.186Z,96875.41
2023-02-04T10:10:49.607Z,96855.88
2023-02-04T10:13:19.729Z,96870.34
2023-02-04T10:15:49.075Z,96868.50
2023-02-04T10:18:32.188Z,96877.94
2023-02-04T10:21:28.184Z,96863.81
2023-02-04T10:23:57.335Z,96862.88
2023-02-04T10:26:28.531Z,96863.31
2023-02-04T10:29:00.649Z,96875.22
2023-02-04T10:31:39.088Z,96878.09
2023-02-04T10:34:20.770Z,96892.38
2023-02-04T10:36:54.632Z,96922.06
2023-02-04T10:39:30.051Z,96902.94
2023-02-04T10:41:59.467Z,96900.88
2023-02-04T10:44:31.804Z,96901.94
2023-02-04T10:47:06.785Z,96922.59
2023-02-04T10:49:34.865Z,96922.88
2023-02-04T10:52:03.478Z,96925.28
2023-02-04T10:54:37.953Z,96902.53
2023-02-04T11:04:18.734Z,96920.94
2023-02-04T11:06:45.511Z,96901.22
2023-02-04T11:09:15.149Z,96900.69
2023-02-04T11:11:50.551Z,96909.47
2023-02-04T11:14:29.724Z,96910.59
2023-02-04T11:17:01.695Z,96903.19
2023-02-04T11:19:39.216Z,96937.34
2023-02-04T11:22:19.975Z,96933.22
2023-02-04T11:24:46.696Z,96927.09
2023-02-04T11:27:26.858Z,96943.09
2023-02-04T11:30:06.463Z,96936.78
2023-02-04T11:32:38.864Z,96933.53
2023-02-04T11:35:23.528Z,96945.22
2023-02-04T11:37:50.693Z,96933.72
2023-02-04T11:40:22.644Z,96945.22
2023-02-04T11:42:49.742Z,96919.06
2023-02-04T11:45:21.107Z,96912.28
2023-02-04T11:47:48.156Z,96912.03
2023-02-04T11:50:25.449Z,96917.72
2023-02-04T11:52:55.080Z,96936.66
2023-02-04T11:55:21.790Z,96953.34
2023-02-04T11:57:52.879Z,96922.41
2023-02-04T12:00:25.928Z,96971.00
2023-02-04T12:02:59.424Z,96942.22
2023-02-04T12:38:01.931Z,96981.41
2023-02-04T12:40:28.711Z,96988.50
2023-02-04T12:42:55.520Z,96972.84
2023-02-04T12:45:22.189Z,96984.66
2023-02-04T12:48:02.954Z,96992.97
2023-02-04T12:50:30.253Z,97005.31
2023-02-04T12:52:58.110Z,96989.97
2023-02-04T12:55:26.983Z,96998.09
2023-02-04T12:59:05.790Z,97013.50
2023-02-04T13:01:33.734Z,97033.72
2023-02-04T13:04:00.412Z,97015.38
2023-02-04T13:06:27.017Z,97014.44
2023-02-04T13:10:55.587Z,97025.00
2023-02-04T13:13:22.794Z,97041.56
2023-02-04T13:15:49.549Z,97035.56
2023-02-04T13:18:17.527Z,97035.88
2023-02-04T13:20:46.150Z,97032.25
2023-02-04T13:23:13.394Z,97032.59
2023-02-04T13:25:40.808Z,97041.22
2023-02-04T13:28:07.624Z,97053.03
2023-02-04T13:33:09.109Z,97086.03
2023-02-04T13:35:35.883Z,97066.22
2023-02-04T13:38:02.707Z,97068.00
2023-02-04T13:40:29.416Z,97081.16
2023-02-04T13:42:56.096Z,97060.53
2023-02-04T13:45:22.956Z,97077.75
2023-02-04T13:47:49.737Z,97082.91
2023-02-04T13:50:17.189Z,97094.88
2023-02-04T13:55:22.511Z,97093.38
2023-02-04T13:57:49.213Z,97099.59
2023-02-04T14:00:16.284Z,97100.97
2023-02-04T14:02:43.079Z,97116.44
2023-02-04T14:05:09.910Z,97124.72
2023-02-04T14:10:18.310Z,97137.28
2023-02-04T14:12:45.196Z,97138.22
2023-02-04T14:15:11.904Z,97131.84
2023-02-04T14:17:38.613Z,97137.00
2023-02-04T14:20:05.834Z,97160.75
2023-02-04T14:22:32.549Z,97144.91
2023-02-04T14:24:59.223Z,97144.47
2023-02-04T14:27:26.031Z,97152.38
2023-02-04T14:29:52.980Z,97148.41
2023-02-04T14:32:21.014Z,97153.44
2023-02-04T14:34:47.703Z,97156.06
2023-02-04T14:37:14.375Z,97171.09
2023-02-04T14:39:41.098Z,97167.63
2023-02-04T14:42:07.809Z,97165.66
2023-02-04T14:44:34.528Z,97179.31
2023-02-04T14:47:01.213Z,97179.56
2023-02-04T14:52:06.898Z,97184.63
2023-02-04T14:54:33.589Z,97177.03
2023-02-04T14:57:00.500Z,97196.88
2023-02-04T14:59:27.295Z,97178.63
2023-02-04T15:01:53.979Z,97193.03
2023-02-04T15:04:20.948Z,97198.84
2023-02-04T15:06:47.897Z,97190.28
2023-02-04T15:09:14.561Z,97196.88
2023-02-04T15:11:41.190Z,97182.50
2023-02-04T15:14:07.953Z,97194.66
2023-02-04T15:19:09.616Z,97206.94
2023-02-04T15:24:04.109Z,97217.94
2023-02-04T15:26:30.899Z,97214.00
2023-02-04T15:28:57.699Z,97216.16
2023-02-04T15:31:25.543Z,97226.19
2023-02-04T15:33:52.310Z,97225.91
2023-02-04T15:36:19.146Z,97232.31
2023-02-04T15:38:46.594Z,97244.13
2023-02-04T15:41:13.351Z,97248.06
2023-02-04T15:43:40.137Z,97253.72
2023-02-04T15:46:06.996Z,97273.91
2023-02-04T15:48:33.746Z,97257.19
2023-02-04T15:51:00.429Z,97265.47
2023-02-04T15:53:27.157Z,97272.78
2023-02-04T15:55:53.826Z,97280.03
2023-02-04T15:58:20.588Z,97289.78
2023-02-04T16:00:47.231Z,97300.56
2023-02-04T16:03:13.900Z,97297.78
2023-02-04T16:05:40.674Z,97310.41
2023-02-04T16:08:07.469Z,97313.38
2023-02-04T16:10:34.298Z,97310.13
2023-02-04T16:13:01.223Z,97313.69
2023-02-04T16:15:28.000Z,97311.47
2023-02-04T16:17:56.188Z,97319.91
2023-02-04T16:20:23.381Z,97327.22
2023-02-04T16:22:50.360Z,97321.19
2023-02-04T16:25:17.250Z,97326.13
2023-02-04T16:27:44.064Z,97340.97
2023-02-04T16:30:12.375Z,97333.91
2023-02-04T16:32:39.313Z,97361.22
2023-02-04T16:35:06.904Z,97342.19
2023-02-04T16:37:34.528Z,97353.16
2023-02-04T16:40:01.197Z,97355.13
2023-02-04T16:42:29.578Z,97353.41
2023-02-04T16:44:56.376Z,97353.84
2023-02-04T16:47:23.054Z,97361.63
2023-02-04T16:49:50.615Z,97363.25
2023-02-04T16:52:18.453Z,97363.94
2023-02-04T16:54:45.153Z,97361.81
2023-02-04T16:57:12.415Z,97365.63
2023-02-04T16:59:39.115Z,97364.25
2023-02-04T17:02:05.904Z,97371.06
2023-02-04T17:04:32.845Z,97374.75
2023-02-04T17:07:00.590Z,97379.28
2023-02-04T17:09:27.893Z,97379.75
2023-02-04T17:11:54.867Z,97393.16
2023-02-04T17:14:23.935Z,97387.13
2023-02-04T17:16:51.786Z,97389.06
2023-02-04T17:19:19.100Z,97373.47
2023-02-04T17:21:46.195Z,97403.88
2023-02-04T17:24:13.232Z,97392.06
2023-02-04T17:26:40.469Z,97405.53
2023-02-04T17:29:09.666Z,97404.94
2023-02-04T17:31:37.100Z,97416.28
2023-02-04T17:34:04.359Z,97420.97
2023-02-04T17:36:32.454Z,97404.94
2023-02-04T17:38:59.618Z,97415.78
2023-02-04T17:41:26.313Z,97419.69
2023-02-04T17:43:53.242Z,97406.47
2023-02-04T17:46:20.123Z,97425.53
2023-02-04T17:48:46.826Z,97416.28
2023-02-04T17:51:13.908Z,97433.06
2023-02-04T17:53:41.264Z,97424.59
2023-02-04T17:56:12.826Z,97427.44
2023-02-04T17:58:40.396Z,97435.31
2023-02-04T18:03:51.904Z,97416.97
2023-02-04T18:06:20.561Z,97433.72
2023-02-04T18:11:33.133Z,97428.38
2023-02-04T18:14:05.559Z,97436.25
2023-02-04T18:16:34.655Z,97439.41
2023-02-04T18:19:20.126Z,97442.34
2023-02-04T18:21:48.391Z,97446.75
2023-02-04T18:24:30.197Z,97449.22
2023-02-04T18:27:01.631Z,97445.47
2023-02-04T18:29:31.417Z,97446.78
2023-02-04T18:32:02.601Z,97443.19
2023-02-04T18:34:37.376Z,97433.13
2023-02-04T18:37:26.916Z,97440.38
2023-02-04T18:40:16.456Z,97437.41
2023-02-04T18:42:45.168Z,97440.25
2023-02-04T18:45:25.082Z,97438.88
2023-02-04T18:47:57.012Z,97446.06
2023-02-04T18:50:29.864Z,97446.19
2023-02-04T18:53:20.021Z,97445.50
2023-02-04T18:56:34.811Z,97453.38
2023-02-04T18:59:01.615Z,97446.59
2023-02-04T19:01:28.371Z,97454.00
2023-02-04T19:04:03.558Z,97456.63
2023-02-04T19:06:50.030Z,97456.81
2023-02-04T19:09:26.732Z,97463.97
2023-02-04T19:12:13.504Z,97458.63
2023-02-04T19:14:44.621Z,97462.72
2023-02-04T19:17:14.361Z,97454.09
2023-02-04T19:19:47.700Z,97461.59
2023-02-04T19:22:24.626Z,97461.59
2023-02-04T19:24:57.801Z,97476.25
2023-02-04T19:27:36.270Z,97483.13
2023-02-04T19:30:28.615Z,97478.16
2023-02-04T19:32:57.569Z,97467.13
2023-02-04T19:38:23.348Z,97471.44
2023-02-04T19:40:52.116Z,97461.03
2023-02-04T19:43:33.586Z,97468.03
2023-02-04T19:46:00.386Z,97454.09
2023-02-04T19:48:34.787Z,97467.28
2023-02-04T19:51:21.224Z,97455.63
2023-02-04T19:53:54.489Z,97467.91
2023-02-04T19:56:39.985Z,97459.03
2023-02-04T19:59:36.067Z,97467.75
2023-02-04T20:02:17.921Z,97469.22
2023-02-04T20:04:48.330Z,97468.84
2023-02-04T20:07:26.105Z,97465.84
2023-02-04T20:10:21.910Z,97471.13
2023-02-04T20:12:52.414Z,97466.13
2023-02-04T20:15:21.546Z,97471.63
2023-02-04T20:17:49.496Z,97478.94
2023-02-04T20:20:18.868Z,97475.91
2023-02-04T20:22:57.189Z,97475.78
2023-02-04T20:28:42.044Z,97482.84
2023-02-04T20:34:01.424Z,97498.50
2023-02-04T20:36:38.367Z,97493.78
2023-02-04T20:39:19.995Z,97508.81
2023-02-04T20:41:47.252Z,97517.50
2023-02-04T20:45:51.242Z,97507.47
2023-02-04T20:48:18.227Z,97516.53
2023-02-04T20:50:49.378Z,97513.63
2023-02-04T20:53:23.306Z,97517.88
2023-02-04T20:56:03.875Z,97515.19
2023-02-04T20:58:33.702Z,97520.94
2023-02-04T21:01:00.415Z,97521.97
2023-02-04T21:03:30.109Z,97513.53
2023-02-04T21:05:59.437Z,97510.66
2023-02-04T21:08:35.573Z,97521.66
2023-02-04T21:11:03.128Z,97513.72
2023-02-04T21:13:30.172Z,97504.88
2023-02-04T21:15:57.368Z,97523.34
2023-02-04T21:18:24.777Z,97522.50
2023-02-04T21:20:51.755Z,97521.72
2023-02-04T21:23:19.137Z,97513.09
2023-02-04T21:28:24.496Z,97512.16
2023-02-04T21:30:51.378Z,97522.00
2023-02-04T21:33:18.162Z,97514.09
2023-02-04T21:35:44.895Z,97529.00
2023-02-04T21:38:11.837Z,97517.56
2023-02-04T21:40:38.542Z,97514.13
2023-02-04T21:43:06.596Z,97515.28
2023-02-04T21:45:34.454Z,97520.81
2023-02-04T21:49:59.587Z,97523.84
2023-02-04T21:52:26.331Z,97525.91
2023-02-04T21:54:52.973Z,97539.41
2023-02-04T21:57:19.686Z,97532.06
2023-02-04T21:59:48.374Z,97527.72
2023-02-04T22:02:15.057Z,97528.22
2023-02-04T22:04:41.772Z,97545.16
2023-02-04T22:07:08.466Z,97547.19
2023-02-04T22:09:35.110Z,97556.09
2023-02-04T22:12:02.546Z,97558.88
2023-02-04T22:14:29.208Z,97558.16
2023-02-04T22:16:55.893Z,97559.53
2023-02-04T22:19:22.836Z,97555.56
2023-02-04T22:21:49.569Z,97565.28
2023-02-04T22:24:16.227Z,97561.09
2023-02-04T22:26:42.936Z,97564.13
2023-02-04T22:29:09.617Z,97563.28
2023-02-04T22:31:36.367Z,97560.38
2023-02-04T22:34:05.594Z,97565.13
2023-02-04T22:37:43.401Z,97572.31
2023-02-04T22:40:11.863Z,97565.28
2023-02-04T22:42:38.583Z,97574.78
2023-02-04T22:45:05.796Z,97569.53
2023-02-04T22:45:10.488Z,97565.28
2023-02-04T22:47:48.646Z,97563.38
2023-02-04T22:50:15.434Z,97563.50
2023-02-04T22:52:43.861Z,97559.88
2023-02-04T22:55:10.912Z,97550.47
2023-02-04T22:57:37.595Z,97545.03
2023-02-04T23:02:46.882Z,97539.81
2023-02-04T23:05:13.571Z,97546.69
2023-02-04T23:07:40.255Z,97547.84
2023-02-04T23:10:07.634Z,97549.81
2023-02-04T23:12:34.349Z,97550.13
2023-02-04T23:15:01.121Z,97546.72
2023-02-04T23:17:27.834Z,97538.72
2023-02-04T23:19:54.543Z,97528.09
2023-02-04T23:22:21.223Z,97533.50
2023-02-04T23:27:28.610Z,97544.88
2023-02-04T23:29:55.329Z,97564.47
2023-02-04T23:32:23.504Z,97543.59
2023-02-04T23:34:50.174Z,97538.28
2023-02-04T23:39:23.363Z,97546.13
2023-02-04T23:41:50.512Z,97559.63
2023-02-04T23:44:17.331Z,97546.59
2023-02-04T23:46:44.240Z,97544.59
2023-02-04T23:49:10.947Z,97545.78
2023-02-04T23:51:37.737Z,97553.25
2023-02-04T23:54:04.978Z,97548.97
2023-02-04T23:56:31.710Z,97540.31
2023-02-04T23:58:58.427Z,97546.63
